首页
METAR-TAF:

METAR-TAF

机场 :

Altenstadt, 德国

纬度: 47-50N, 经度: 010-52E, 海拔: 739米

当前天气观测

该预报发布于19分钟前的17:20 UTC
风速5节,风向南转西南
温度 12°C
湿度 88%
气压 1019 hPa
能见度10公里或以上
少量云层高于1500英尺
多云层高于9000英尺

METAR: ETHA 041720Z 21005KT 9999 FEW015 BKN090 12/10 Q1019 BLU

时间: 19:39 (17:39 UTC)

预报

该预报发布于5小时和58分钟前的11:41 UTC
预报有效从04日的 11点(UTC)到 04日的 20点(UTC)
风速3节,风向多变
能見度: 9000
散云层高于1000英尺
多云层高于5000英尺
阴天层高于9000英尺
小雨
短暂存在
从 04日的 11点(UTC)到 04日的 20点(UTC)
风速5节,风向
能見度: 7000
多云层高于1000英尺
多云层高于8000英尺

TAF: ETHA 041141Z 0411/0420 VRB03KT 9000 -RA SCT010 BKN050 OVC090 TEMPO 0411/0420 36005KT 7000 NSW BKN010 BKN080

超过4000个机场的气象观测和天气预报(METAR&TAF报告)。

可查询的气象台以黄色和红色小点在地图上表示。

将鼠标移到小点上方,可查看气象台名称。

然后点击查看天气观测和预报。

如需切换地图:点击带黑十字的绿色按钮放大地图;点击带横线的绿色按钮缩小地图;或者点击绿色箭头查看邻近地区的地图。


METAR-TAF: